createdAt,value
2018-11-05T00:00:46.722Z,562.67
2018-11-05T00:03:18.430Z,535.23
2018-11-05T00:05:48.202Z,594.67
2018-11-05T00:08:17.211Z,567.80
2018-11-05T00:10:46.283Z,596.97
2018-11-05T00:13:15.277Z,592.13
2018-11-05T00:15:47.882Z,574.87
2018-11-05T00:18:16.888Z,577.23
2018-11-05T00:20:45.951Z,584.83
2018-11-05T00:23:16.312Z,580.43
2018-11-05T00:25:45.362Z,595.33
2018-11-05T00:28:14.386Z,616.57
2018-11-05T00:30:43.361Z,629.27
2018-11-05T00:33:12.363Z,639.83
2018-11-05T00:35:41.398Z,655.23
2018-11-05T00:38:10.717Z,644.57
2018-11-05T00:40:39.700Z,645.30
2018-11-05T00:43:08.661Z,624.43
2018-11-05T00:45:37.689Z,634.60
2018-11-05T00:48:06.659Z,617.40
2018-11-05T00:50:35.660Z,593.57
2018-11-05T00:53:04.752Z,614.10
2018-11-05T00:55:33.682Z,605.33
2018-11-05T00:58:02.687Z,608.53
2018-11-05T01:00:31.641Z,618.13
2018-11-05T01:03:00.719Z,642.90
2018-11-05T01:05:29.642Z,613.03
2018-11-05T01:07:58.627Z,630.10
2018-11-05T01:10:27.574Z,658.97
2018-11-05T01:12:56.600Z,644.77
2018-11-05T01:15:25.545Z,637.90
2018-11-05T01:17:54.528Z,642.77
2018-11-05T01:20:23.499Z,662.37
2018-11-05T01:22:52.504Z,663.30
2018-11-05T01:25:21.474Z,683.57
2018-11-05T01:27:50.399Z,702.33
2018-11-05T01:30:19.405Z,695.70
2018-11-05T01:32:48.342Z,706.23
2018-11-05T01:35:17.328Z,722.73
2018-11-05T01:37:46.369Z,691.27
2018-11-05T01:40:15.991Z,700.07
2018-11-05T01:42:48.200Z,711.50
2018-11-05T01:45:17.198Z,700.50
2018-11-05T01:47:52.679Z,721.20
2018-11-05T01:50:21.748Z,703.80
2018-11-05T01:52:50.746Z,713.17
2018-11-05T01:55:19.699Z,721.97
2018-11-05T01:57:48.705Z,715.63
2018-11-05T02:00:17.915Z,724.23
2018-11-05T02:02:47.591Z,732.23
2018-11-05T02:05:16.639Z,736.53
2018-11-05T02:07:46.159Z,733.90
2018-11-05T02:10:16.474Z,726.57
2018-11-05T02:12:45.436Z,743.17
2018-11-05T02:15:14.537Z,743.23
2018-11-05T02:17:44.619Z,737.27
2018-11-05T02:20:14.515Z,750.20
2018-11-05T02:22:43.520Z,732.07
2018-11-05T02:25:13.343Z,744.67
2018-11-05T02:27:42.712Z,737.40
2018-11-05T02:30:15.133Z,773.10
2018-11-05T02:32:44.092Z,757.17
2018-11-05T02:35:14.045Z,731.93
2018-11-05T02:37:43.700Z,760.67
2018-11-05T02:40:14.899Z,745.13
2018-11-05T02:42:44.452Z,739.33
2018-11-05T02:45:14.582Z,747.50
2018-11-05T02:47:43.617Z,730.17
2018-11-05T02:50:13.516Z,756.90
2018-11-05T02:52:43.534Z,731.43
2018-11-05T02:55:12.522Z,736.53
2018-11-05T02:57:41.553Z,742.10
2018-11-05T03:00:13.233Z,754.77
2018-11-05T03:02:42.582Z,740.57
2018-11-05T03:05:15.678Z,731.33
2018-11-05T03:07:45.425Z,742.57
2018-11-05T03:10:14.701Z,752.73
2018-11-05T03:12:44.339Z,779.63
2018-11-05T03:15:14.645Z,748.50
2018-11-05T03:17:43.598Z,757.73
2018-11-05T03:20:13.455Z,749.97
2018-11-05T03:22:42.984Z,753.87
2018-11-05T03:25:12.005Z,747.17
2018-11-05T03:27:41.416Z,756.97
2018-11-05T03:30:13.524Z,760.63
2018-11-05T03:32:42.670Z,746.60
2018-11-05T03:35:12.585Z,762.73
2018-11-05T03:37:42.451Z,769.60
2018-11-05T03:40:12.315Z,775.50
2018-11-05T03:42:41.970Z,765.07
2018-11-05T03:45:12.378Z,767.83
2018-11-05T03:47:41.328Z,764.60
2018-11-05T03:50:12.543Z,768.50
2018-11-05T03:52:41.850Z,758.93
2018-11-05T03:55:10.811Z,765.67
2018-11-05T03:57:39.922Z,768.00
2018-11-05T04:00:10.163Z,782.43
2018-11-05T04:02:39.167Z,756.03
2018-11-05T04:05:08.523Z,782.60
2018-11-05T04:07:37.891Z,760.50
2018-11-05T04:10:07.702Z,776.30
2018-11-05T04:12:36.659Z,786.93
2018-11-05T04:15:05.926Z,762.13
2018-11-05T04:17:34.964Z,791.10
2018-11-05T04:20:04.186Z,779.63
2018-11-05T04:22:33.195Z,761.77
2018-11-05T04:25:02.139Z,780.40
2018-11-05T04:27:31.257Z,766.60
2018-11-05T04:30:00.264Z,772.67
2018-11-05T04:32:29.287Z,778.83
2018-11-05T04:34:58.236Z,780.60
2018-11-05T04:37:27.263Z,773.40
2018-11-05T04:39:56.237Z,766.83
2018-11-05T04:42:25.256Z,761.60
2018-11-05T04:44:54.207Z,778.70
2018-11-05T04:47:23.219Z,772.37
2018-11-05T04:49:52.227Z,779.27
2018-11-05T04:52:21.216Z,762.53
2018-11-05T04:54:50.423Z,772.77
2018-11-05T04:57:19.406Z,770.03
2018-11-05T04:59:48.335Z,786.03
2018-11-05T05:02:17.347Z,771.80
2018-11-05T05:04:46.321Z,778.53
2018-11-05T05:07:15.308Z,757.53
2018-11-05T05:09:44.516Z,774.97
2018-11-05T05:12:13.505Z,788.57
2018-11-05T05:14:42.896Z,767.97
2018-11-05T05:17:11.943Z,772.13
2018-11-05T05:19:41.021Z,769.60
2018-11-05T05:22:09.968Z,777.40
2018-11-05T05:24:38.925Z,781.00
2018-11-05T05:27:08.050Z,785.80
2018-11-05T05:29:37.078Z,789.13
2018-11-05T05:32:06.177Z,763.67
2018-11-05T05:34:35.159Z,764.80
2018-11-05T05:37:04.164Z,761.63
2018-11-05T05:39:33.162Z,771.17
2018-11-05T05:42:02.194Z,768.67
2018-11-05T05:44:31.177Z,755.87
2018-11-05T05:47:00.108Z,760.57
2018-11-05T05:49:29.094Z,762.57
2018-11-05T05:51:58.097Z,759.37
2018-11-05T05:54:27.072Z,762.53
2018-11-05T05:56:56.056Z,762.43
2018-11-05T05:59:25.085Z,775.43
2018-11-05T06:01:54.111Z,745.00
2018-11-05T06:04:23.107Z,785.10
2018-11-05T06:06:52.242Z,766.07
2018-11-05T06:09:21.155Z,737.23
2018-11-05T06:11:50.144Z,755.97
2018-11-05T06:14:19.150Z,763.13
2018-11-05T06:16:48.088Z,742.87
2018-11-05T06:19:17.083Z,758.97
2018-11-05T06:21:46.076Z,747.73
2018-11-05T06:24:15.094Z,753.63
2018-11-05T06:26:44.048Z,741.50
2018-11-05T06:29:13.060Z,754.97
2018-11-05T06:31:42.054Z,735.60
2018-11-05T06:34:11.031Z,757.63
2018-11-05T06:36:40.075Z,759.67
2018-11-05T06:39:11.361Z,751.70
2018-11-05T06:41:40.615Z,757.10
2018-11-05T06:44:09.638Z,768.93
2018-11-05T06:46:38.659Z,754.33
2018-11-05T06:49:07.852Z,762.37
2018-11-05T06:51:36.852Z,772.83
2018-11-05T06:54:05.994Z,773.90
2018-11-05T06:56:35.104Z,760.10
2018-11-05T06:59:04.189Z,772.77
2018-11-05T07:01:33.180Z,759.93
2018-11-05T07:04:02.168Z,762.30
2018-11-05T07:06:31.145Z,751.83
2018-11-05T07:09:00.099Z,741.83
2018-11-05T07:11:29.133Z,751.20
2018-11-05T07:13:58.095Z,747.57
2018-11-05T07:16:27.083Z,723.83
2018-11-05T07:18:56.323Z,723.67
2018-11-05T07:21:25.015Z,732.50
2018-11-05T07:24:07.260Z,731.80
2018-11-05T07:26:36.409Z,717.17
2018-11-05T07:29:05.464Z,720.03
2018-11-05T07:31:34.485Z,708.47
2018-11-05T07:34:03.724Z,733.73
2018-11-05T07:36:32.616Z,728.03
2018-11-05T07:39:01.760Z,739.30
2018-11-05T07:41:30.793Z,716.93
2018-11-05T07:44:01.849Z,737.70
2018-11-05T07:46:30.961Z,707.97
2018-11-05T07:48:59.975Z,717.50
2018-11-05T07:51:29.048Z,720.40
2018-11-05T07:53:58.135Z,726.23
2018-11-05T07:56:27.211Z,715.00
2018-11-05T07:58:56.240Z,731.07
2018-11-05T08:01:25.298Z,740.83
2018-11-05T08:03:54.376Z,726.27
2018-11-05T08:06:23.399Z,722.20
2018-11-05T08:08:52.529Z,700.97
2018-11-05T08:11:21.566Z,726.57
2018-11-05T08:13:50.612Z,727.73
2018-11-05T08:16:19.636Z,703.27
2018-11-05T08:18:48.678Z,705.10
2018-11-05T08:21:17.784Z,689.80
2018-11-05T08:23:46.833Z,700.73
2018-11-05T08:26:15.986Z,696.67
2018-11-05T08:28:44.964Z,685.93
2018-11-05T08:31:14.150Z,685.40
2018-11-05T08:33:43.230Z,667.33
2018-11-05T08:36:12.321Z,666.63
2018-11-05T08:38:41.311Z,669.00
2018-11-05T08:41:10.405Z,676.43
2018-11-05T08:43:39.465Z,661.10
2018-11-05T08:46:08.544Z,653.67
2018-11-05T08:48:37.614Z,678.77
2018-11-05T08:51:06.822Z,662.13
2018-11-05T08:53:35.768Z,658.47
2018-11-05T08:56:05.609Z,665.20
2018-11-05T08:58:34.697Z,652.30
2018-11-05T09:01:09.284Z,642.23
2018-11-05T09:03:38.361Z,660.10
2018-11-05T09:06:07.863Z,637.97
2018-11-05T09:08:36.963Z,637.47
2018-11-05T09:11:06.553Z,640.17
2018-11-05T09:13:35.104Z,631.50
2018-11-05T09:16:04.383Z,621.57
2018-11-05T09:18:33.508Z,598.83
2018-11-05T09:21:02.689Z,582.83
2018-11-05T09:23:31.854Z,579.90
2018-11-05T09:26:00.905Z,563.87
2018-11-05T09:28:30.117Z,520.10
2018-11-05T09:30:59.220Z,545.90
2018-11-05T09:33:28.295Z,540.07
2018-11-05T09:35:57.314Z,547.73
2018-11-05T09:38:26.438Z,534.57
2018-11-05T09:40:55.448Z,539.30
2018-11-05T09:43:24.536Z,543.10
2018-11-05T09:45:53.555Z,565.23
2018-11-05T09:48:22.600Z,566.70
2018-11-05T09:50:51.629Z,550.40
2018-11-05T09:53:20.697Z,558.17
2018-11-05T09:55:49.757Z,541.03
2018-11-05T09:58:18.868Z,527.43
2018-11-05T10:00:48.067Z,503.40
2018-11-05T10:03:18.300Z,381.03
2018-11-05T10:05:47.309Z,350.43
2018-11-05T10:08:17.206Z,368.20
2018-11-05T10:10:46.369Z,348.90
2018-11-05T10:13:15.377Z,361.00
2018-11-05T10:15:44.389Z,354.33
2018-11-05T10:18:13.608Z,378.03
2018-11-05T10:20:42.650Z,404.50
2018-11-05T10:23:11.720Z,431.73
2018-11-05T10:25:40.813Z,475.63
2018-11-05T10:28:10.009Z,472.43
2018-11-05T10:31:48.416Z,510.17
2018-11-05T10:34:17.468Z,524.13
2018-11-05T10:36:46.559Z,549.03
2018-11-05T10:39:16.118Z,547.60
2018-11-05T10:41:45.196Z,554.50
2018-11-05T10:44:14.290Z,552.90
2018-11-05T10:46:43.460Z,599.17
2018-11-05T10:49:12.574Z,580.97
2018-11-05T10:51:41.699Z,598.30
2018-11-05T10:54:10.864Z,570.37
2018-11-05T10:56:40.266Z,542.63
2018-11-05T10:59:09.764Z,546.60
2018-11-05T11:01:44.125Z,515.03
2018-11-05T11:04:18.615Z,499.40
2018-11-05T11:06:47.640Z,480.77
2018-11-05T11:09:16.944Z,461.50
2018-11-05T11:11:46.840Z,475.63
2018-11-05T11:14:15.891Z,472.83
2018-11-05T11:16:44.977Z,461.53
2018-11-05T11:19:14.053Z,466.47
2018-11-05T11:21:43.094Z,458.40
2018-11-05T11:24:12.123Z,449.37
2018-11-05T11:26:41.182Z,448.17
2018-11-05T11:29:10.274Z,429.23
2018-11-05T11:31:39.316Z,440.27
2018-11-05T11:34:08.396Z,444.00
2018-11-05T11:36:38.093Z,437.43
2018-11-05T11:39:09.874Z,438.20
2018-11-05T11:41:38.924Z,426.07
2018-11-05T11:44:08.503Z,447.97
2018-11-05T11:46:38.016Z,434.40
2018-11-05T11:49:08.392Z,415.23
2018-11-05T11:51:37.460Z,415.60
2018-11-05T11:54:06.656Z,408.50
2018-11-05T11:56:35.680Z,410.87
2018-11-05T11:59:04.868Z,404.23
2018-11-05T12:01:41.269Z,405.33
2018-11-05T12:04:10.295Z,408.80
2018-11-05T12:06:39.723Z,400.63
2018-11-05T12:09:09.392Z,409.20
2018-11-05T12:11:38.426Z,400.73
2018-11-05T12:14:07.531Z,393.33
2018-11-05T12:16:36.491Z,410.20
2018-11-05T12:19:05.766Z,396.83
2018-11-05T12:21:34.815Z,430.67
2018-11-05T12:24:04.011Z,413.50
2018-11-05T12:26:33.844Z,425.30
2018-11-05T12:29:02.883Z,424.53
2018-11-05T12:31:31.975Z,418.70
2018-11-05T12:34:01.054Z,408.27
2018-11-05T12:36:30.106Z,413.60
2018-11-05T12:38:59.872Z,406.43
2018-11-05T12:41:28.935Z,410.43
2018-11-05T12:43:58.072Z,401.33
2018-11-05T12:46:27.206Z,393.23
2018-11-05T12:48:56.244Z,391.97
2018-11-05T12:51:25.304Z,397.43
2018-11-05T12:53:54.347Z,415.40
2018-11-05T12:56:23.618Z,389.70
2018-11-05T12:58:52.646Z,375.07
2018-11-05T13:01:21.652Z,382.63
2018-11-05T13:03:50.709Z,390.40
2018-11-05T13:06:19.759Z,384.17
2018-11-05T13:08:48.772Z,380.70
2018-11-05T13:11:17.838Z,364.03
2018-11-05T13:13:46.916Z,361.50
2018-11-05T13:16:15.937Z,332.60
2018-11-05T13:18:45.003Z,333.67
2018-11-05T13:21:14.069Z,337.63
2018-11-05T13:23:46.185Z,347.67
2018-11-05T13:26:16.135Z,334.53
2018-11-05T13:28:46.144Z,329.37
2018-11-05T13:31:17.157Z,341.37
2018-11-05T13:33:46.210Z,341.93
2018-11-05T13:36:15.384Z,347.77
2018-11-05T13:38:44.580Z,364.07
2018-11-05T13:41:13.781Z,365.70
2018-11-05T13:43:42.987Z,356.67
2018-11-05T13:46:12.376Z,364.67
2018-11-05T13:48:41.744Z,367.73
2018-11-05T13:51:10.300Z,363.57
2018-11-05T13:53:40.423Z,358.07
2018-11-05T13:56:09.673Z,375.47
2018-11-05T13:58:38.857Z,374.07
2018-11-05T14:01:08.113Z,359.77
2018-11-05T14:03:37.128Z,365.20
2018-11-05T14:06:06.205Z,360.07
2018-11-05T14:08:35.284Z,366.63
2018-11-05T14:11:04.569Z,377.10
2018-11-05T14:13:33.544Z,391.10
2018-11-05T14:16:02.632Z,387.30
2018-11-05T14:18:31.636Z,381.97
2018-11-05T14:21:00.735Z,405.43
2018-11-05T14:23:29.769Z,403.97
2018-11-05T14:25:58.848Z,398.20
2018-11-05T14:28:28.358Z,382.90
2018-11-05T14:30:57.200Z,395.63
2018-11-05T14:33:26.256Z,399.17
2018-11-05T14:35:55.388Z,385.57
2018-11-05T14:38:24.447Z,401.50
2018-11-05T14:40:53.547Z,414.37
2018-11-05T14:43:22.571Z,396.10
2018-11-05T14:45:51.608Z,406.50
2018-11-05T14:48:20.697Z,395.47
2018-11-05T14:50:49.865Z,398.77
2018-11-05T14:53:18.779Z,390.47
2018-11-05T14:55:47.820Z,401.13
2018-11-05T14:58:16.875Z,403.03
2018-11-05T15:00:45.912Z,423.27
2018-11-05T15:03:14.950Z,411.83
2018-11-05T15:05:43.972Z,423.80
2018-11-05T15:08:13.071Z,426.70
2018-11-05T15:10:42.155Z,429.20
2018-11-05T15:13:11.185Z,424.13
2018-11-05T15:15:40.353Z,417.33
2018-11-05T15:18:09.426Z,411.50
2018-11-05T15:20:38.510Z,410.93
2018-11-05T15:23:07.612Z,405.13
2018-11-05T15:25:36.733Z,387.30
2018-11-05T15:28:06.240Z,407.90
2018-11-05T15:30:42.063Z,399.83
2018-11-05T15:33:11.184Z,403.03
2018-11-05T15:35:40.216Z,391.23
2018-11-05T15:38:09.266Z,404.93
2018-11-05T15:40:38.280Z,403.10
2018-11-05T15:43:07.341Z,397.83
2018-11-05T15:45:36.388Z,414.40
2018-11-05T15:48:06.134Z,425.97
2018-11-05T15:50:35.316Z,415.37
2018-11-05T15:53:04.607Z,401.17
2018-11-05T15:55:33.542Z,414.83
2018-11-05T15:58:02.588Z,412.07
2018-11-05T16:00:31.632Z,413.37
2018-11-05T16:03:01.656Z,405.67
2018-11-05T16:05:30.705Z,408.97
2018-11-05T16:07:59.793Z,408.33
2018-11-05T16:10:28.851Z,400.97
2018-11-05T16:12:57.895Z,414.17
2018-11-05T16:15:26.965Z,418.20
2018-11-05T16:17:55.989Z,414.13
2018-11-05T16:20:24.977Z,406.20
2018-11-05T16:22:54.021Z,418.43
2018-11-05T16:25:23.041Z,410.73
2018-11-05T16:27:52.141Z,391.20
2018-11-05T16:30:21.988Z,403.77
2018-11-05T16:32:51.640Z,405.10
2018-11-05T16:35:20.666Z,410.27
2018-11-05T16:37:49.853Z,408.93
2018-11-05T16:40:19.599Z,404.30
2018-11-05T16:42:49.981Z,404.23
2018-11-05T16:45:19.029Z,389.07
2018-11-05T16:47:48.480Z,402.87
2018-11-05T16:50:20.048Z,398.30
2018-11-05T16:52:49.127Z,404.37
2018-11-05T16:55:18.183Z,397.57
2018-11-05T16:57:47.295Z,384.03
2018-11-05T17:00:16.464Z,395.83
2018-11-05T17:02:46.168Z,409.90
2018-11-05T17:05:15.083Z,413.67
2018-11-05T17:07:44.266Z,411.73
2018-11-05T17:10:19.874Z,410.90
2018-11-05T17:12:48.947Z,396.57
2018-11-05T17:15:18.053Z,397.83
2018-11-05T17:17:47.140Z,393.57
2018-11-05T17:20:18.384Z,404.70
2018-11-05T17:22:47.438Z,397.33
2018-11-05T17:25:16.881Z,413.93
2018-11-05T17:27:46.769Z,416.57
2018-11-05T17:30:18.136Z,399.17
2018-11-05T17:32:47.235Z,426.37
2018-11-05T17:35:16.632Z,413.47
2018-11-05T17:37:51.294Z,409.97
2018-11-05T17:40:21.708Z,406.43
2018-11-05T17:42:50.794Z,407.07
2018-11-05T17:45:20.396Z,415.93
2018-11-05T17:47:49.669Z,417.70
2018-11-05T17:50:20.140Z,417.97
2018-11-05T17:52:49.232Z,409.83
2018-11-05T17:55:18.311Z,418.40
2018-11-05T17:57:48.285Z,413.23
2018-11-05T18:00:21.590Z,413.10
2018-11-05T18:02:50.755Z,407.57
2018-11-05T18:05:20.176Z,417.40
2018-11-05T18:07:49.202Z,421.23
2018-11-05T18:10:18.260Z,435.73
2018-11-05T18:12:47.324Z,436.37
2018-11-05T18:15:16.407Z,430.83
2018-11-05T18:17:46.255Z,446.80
2018-11-05T18:20:16.086Z,420.87
2018-11-05T18:22:45.173Z,420.17
2018-11-05T18:25:15.597Z,428.87
2018-11-05T18:27:44.938Z,433.27
2018-11-05T18:30:14.651Z,417.30
2018-11-05T18:32:43.732Z,421.03
2018-11-05T18:35:13.736Z,428.97
2018-11-05T18:37:44.237Z,425.67
2018-11-05T18:40:14.404Z,425.43
2018-11-05T18:42:43.922Z,425.10
2018-11-05T18:45:13.189Z,429.40
2018-11-05T18:47:42.298Z,429.37
2018-11-05T18:50:13.703Z,436.27
2018-11-05T18:52:43.160Z,428.40
2018-11-05T18:55:13.513Z,424.83
2018-11-05T18:57:42.638Z,432.27
2018-11-05T19:00:20.543Z,434.50
2018-11-05T19:02:50.262Z,411.37
2018-11-05T19:05:19.702Z,416.47
2018-11-05T19:07:48.957Z,419.30
2018-11-05T19:10:18.065Z,441.83
2018-11-05T19:12:47.584Z,435.77
2018-11-05T19:15:16.972Z,436.03
2018-11-05T19:17:46.882Z,442.03
2018-11-05T19:20:16.098Z,422.93
2018-11-05T19:22:45.495Z,418.07
2018-11-05T19:25:15.153Z,419.00
2018-11-05T19:27:44.692Z,430.20
2018-11-05T19:30:23.875Z,420.83
2018-11-05T19:32:53.133Z,417.60
2018-11-05T19:35:22.195Z,411.97
2018-11-05T19:37:51.206Z,418.83
2018-11-05T19:40:20.616Z,427.67
2018-11-05T19:42:50.128Z,417.37
2018-11-05T19:45:20.572Z,433.43
2018-11-05T19:47:49.659Z,431.07
2018-11-05T19:50:20.869Z,436.00
2018-11-05T19:52:50.645Z,428.97
2018-11-05T19:55:20.063Z,430.60
2018-11-05T19:57:49.817Z,432.53
2018-11-05T20:00:22.526Z,437.33
2018-11-05T20:02:51.690Z,424.10
2018-11-05T20:05:20.844Z,437.87
2018-11-05T20:07:50.618Z,431.90
2018-11-05T20:10:19.825Z,431.50
2018-11-05T20:12:48.984Z,434.97
2018-11-05T20:15:18.252Z,434.80
2018-11-05T20:17:48.241Z,433.37
2018-11-05T20:20:18.765Z,438.83
2018-11-05T20:22:47.897Z,427.37
2018-11-05T20:25:16.894Z,442.70
2018-11-05T20:27:45.992Z,456.97
2018-11-05T20:30:18.381Z,430.07
2018-11-05T20:32:48.815Z,426.23
2018-11-05T20:35:17.409Z,442.20
2018-11-05T20:37:46.488Z,438.33
2018-11-05T20:40:17.055Z,428.17
2018-11-05T20:42:47.197Z,443.27
2018-11-05T20:45:17.094Z,440.80
2018-11-05T20:47:46.183Z,439.93
2018-11-05T20:50:15.927Z,444.50
2018-11-05T20:52:44.992Z,452.50
2018-11-05T20:55:15.143Z,455.37
2018-11-05T20:57:44.354Z,448.80
2018-11-05T21:00:14.878Z,469.73
2018-11-05T21:02:44.261Z,437.70
2018-11-05T21:05:13.347Z,441.93
2018-11-05T21:07:43.133Z,463.67
2018-11-05T21:10:13.185Z,455.23
2018-11-05T21:12:43.028Z,465.67
2018-11-05T21:15:17.283Z,466.10
2018-11-05T21:17:47.293Z,443.80
2018-11-05T21:20:16.615Z,446.40
2018-11-05T21:22:46.293Z,447.23
2018-11-05T21:25:15.135Z,446.70
2018-11-05T21:27:44.564Z,452.57
2018-11-05T21:30:15.805Z,442.10
2018-11-05T21:32:44.870Z,455.80
2018-11-05T21:35:15.265Z,456.23
2018-11-05T21:37:44.373Z,451.47
2018-11-05T21:40:14.701Z,444.57
2018-11-05T21:42:43.850Z,452.80
2018-11-05T21:45:13.972Z,446.43
2018-11-05T21:47:43.670Z,444.80
2018-11-05T21:50:14.456Z,455.63
2018-11-05T21:52:44.100Z,443.73
2018-11-05T21:55:13.237Z,461.50
2018-11-05T21:57:43.639Z,454.97
2018-11-05T22:00:14.462Z,452.77
2018-11-05T22:02:48.956Z,468.13
2018-11-05T22:05:17.990Z,455.70
2018-11-05T22:07:47.833Z,458.93
2018-11-05T22:10:16.905Z,447.17
2018-11-05T22:12:46.530Z,446.93
2018-11-05T22:15:15.641Z,452.17
2018-11-05T22:17:44.735Z,447.40
2018-11-05T22:20:13.855Z,448.77
2018-11-05T22:22:43.093Z,447.43
2018-11-05T22:25:12.382Z,454.27
2018-11-05T22:27:41.437Z,463.80
2018-11-05T22:30:11.514Z,452.80
2018-11-05T22:32:40.516Z,451.13
2018-11-05T22:35:09.612Z,463.93
2018-11-05T22:37:38.628Z,450.30
2018-11-05T22:40:10.517Z,439.83
2018-11-05T22:42:39.537Z,439.97
2018-11-05T22:45:09.837Z,468.50
2018-11-05T22:47:38.910Z,444.47
2018-11-05T22:50:08.639Z,453.63
2018-11-05T22:52:38.059Z,448.17
2018-11-05T22:55:07.466Z,438.80
2018-11-05T22:57:36.554Z,459.63
2018-11-05T23:00:14.314Z,447.13
2018-11-05T23:02:47.597Z,455.27
2018-11-05T23:05:16.665Z,442.13
2018-11-05T23:07:45.718Z,463.07
2018-11-05T23:10:15.776Z,447.10
2018-11-05T23:12:44.884Z,441.63
2018-11-05T23:15:14.280Z,435.33
2018-11-05T23:17:55.477Z,440.93
2018-11-05T23:20:57.441Z,427.97
2018-11-05T23:29:51.960Z,441.97
2018-11-05T23:32:21.395Z,424.40
2018-11-05T23:34:50.792Z,409.30
2018-11-05T23:37:19.846Z,435.07
2018-11-05T23:39:48.896Z,430.83
2018-11-05T23:42:18.052Z,426.70
2018-11-05T23:44:47.177Z,416.00
2018-11-05T23:47:16.352Z,434.47
2018-11-05T23:49:45.441Z,413.13
2018-11-05T23:52:14.508Z,424.67
2018-11-05T23:54:43.573Z,427.93
2018-11-05T23:57:12.755Z,428.00
2018-11-05T23:59:41.747Z,425.27
